sensor_id;sensor_type;location;lat;lon;timestamp;pressure;altitude;pressure_sealevel;temperature
73673;BMP280;61972;19.480;-99.240;2023-02-05T00:00:15;77785.19;;;25.96
73673;BMP280;61972;19.480;-99.240;2023-02-05T00:02:41;77785.94;;;25.99
73673;BMP280;61972;19.480;-99.240;2023-02-05T00:05:08;77789.66;;;26.00
73673;BMP280;61972;19.480;-99.240;2023-02-05T00:07:34;77793.41;;;26.01
73673;BMP280;61972;19.480;-99.240;2023-02-05T00:10:01;77786.66;;;26.02
73673;BMP280;61972;19.480;-99.240;2023-02-05T00:12:27;77793.00;;;26.03
73673;BMP280;61972;19.480;-99.240;2023-02-05T00:14:53;77788.47;;;26.06
73673;BMP280;61972;19.480;-99.240;2023-02-05T00:17:19;77795.00;;;26.10
73673;BMP280;61972;19.480;-99.240;2023-02-05T00:19:45;77799.88;;;26.12
73673;BMP280;61972;19.480;-99.240;2023-02-05T00:22:11;77795.56;;;26.10
73673;BMP280;61972;19.480;-99.240;2023-02-05T00:24:37;77793.09;;;26.13
73673;BMP280;61972;19.480;-99.240;2023-02-05T00:27:03;77793.09;;;26.13
73673;BMP280;61972;19.480;-99.240;2023-02-05T00:29:29;77799.44;;;26.14
73673;BMP280;61972;19.480;-99.240;2023-02-05T00:31:55;77803.03;;;26.12
73673;BMP280;61972;19.480;-99.240;2023-02-05T00:34:21;77803.03;;;26.12
73673;BMP280;61972;19.480;-99.240;2023-02-05T00:36:47;77806.03;;;26.10
73673;BMP280;61972;19.480;-99.240;2023-02-05T00:39:13;77806.41;;;26.08
73673;BMP280;61972;19.480;-99.240;2023-02-05T00:41:40;77821.44;;;26.05
73673;BMP280;61972;19.480;-99.240;2023-02-05T00:44:06;77820.31;;;26.04
73673;BMP280;61972;19.480;-99.240;2023-02-05T00:46:32;77818.09;;;26.02
73673;BMP280;61972;19.480;-99.240;2023-02-05T00:48:58;77822.75;;;26.01
73673;BMP280;61972;19.480;-99.240;2023-02-05T00:51:25;77828.94;;;26.00
73673;BMP280;61972;19.480;-99.240;2023-02-05T00:53:51;77834.56;;;25.98
73673;BMP280;61972;19.480;-99.240;2023-02-05T00:56:17;77830.81;;;25.97
73673;BMP280;61972;19.480;-99.240;2023-02-05T00:58:43;77841.28;;;25.97
73673;BMP280;61972;19.480;-99.240;2023-02-05T01:01:13;77840.16;;;25.96
73673;BMP280;61972;19.480;-99.240;2023-02-05T01:03:40;77842.25;;;25.95
73673;BMP280;61972;19.480;-99.240;2023-02-05T01:06:06;77843.03;;;25.91
73673;BMP280;61972;19.480;-99.240;2023-02-05T01:08:33;77851.25;;;25.89
73673;BMP280;61972;19.480;-99.240;2023-02-05T01:10:59;77859.09;;;25.89
73673;BMP280;61972;19.480;-99.240;2023-02-05T01:13:26;77860.22;;;25.90
73673;BMP280;61972;19.480;-99.240;2023-02-05T01:15:52;77858.19;;;25.91
73673;BMP280;61972;19.480;-99.240;2023-02-05T01:18:18;77863.81;;;25.89
73673;BMP280;61972;19.480;-99.240;2023-02-05T01:20:44;77868.84;;;25.86
73673;BMP280;61972;19.480;-99.240;2023-02-05T01:23:10;77874.06;;;25.86
73673;BMP280;61972;19.480;-99.240;2023-02-05T01:25:37;77875.03;;;25.84
73673;BMP280;61972;19.480;-99.240;2023-02-05T01:28:03;77885.50;;;25.84
73673;BMP280;61972;19.480;-99.240;2023-02-05T01:30:30;77883.47;;;25.85
73673;BMP280;61972;19.480;-99.240;2023-02-05T01:32:56;77896.13;;;25.87
73673;BMP280;61972;19.480;-99.240;2023-02-05T01:35:22;77889.22;;;25.86
73673;BMP280;61972;19.480;-99.240;2023-02-05T01:37:48;77896.94;;;25.83
73673;BMP280;61972;19.480;-99.240;2023-02-05T01:40:15;77897.69;;;25.79
73673;BMP280;61972;19.480;-99.240;2023-02-05T01:42:42;77894.16;;;25.73
73673;BMP280;61972;19.480;-99.240;2023-02-05T01:47:48;77910.69;;;25.62
73673;BMP280;61972;19.480;-99.240;2023-02-05T01:50:16;77917.78;;;25.59
73673;BMP280;61972;19.480;-99.240;2023-02-05T01:52:42;77918.00;;;25.54
73673;BMP280;61972;19.480;-99.240;2023-02-05T01:55:09;77924.00;;;25.50
73673;BMP280;61972;19.480;-99.240;2023-02-05T01:57:36;77924.03;;;25.43
73673;BMP280;61972;19.480;-99.240;2023-02-05T02:00:04;77930.03;;;25.39
73673;BMP280;61972;19.480;-99.240;2023-02-05T02:02:32;77931.91;;;25.36
73673;BMP280;61972;19.480;-99.240;2023-02-05T02:05:02;77924.25;;;25.31
73673;BMP280;61972;19.480;-99.240;2023-02-05T02:07:31;77939.78;;;25.28
73673;BMP280;61972;19.480;-99.240;2023-02-05T02:09:58;77943.16;;;25.24
73673;BMP280;61972;19.480;-99.240;2023-02-05T02:12:28;77953.25;;;25.19
73673;BMP280;61972;19.480;-99.240;2023-02-05T02:14:59;77949.91;;;25.16
73673;BMP280;61972;19.480;-99.240;2023-02-05T02:17:27;77963.91;;;25.15
73673;BMP280;61972;19.480;-99.240;2023-02-05T02:20:07;77965.81;;;25.12
73673;BMP280;61972;19.480;-99.240;2023-02-05T02:28:15;77978.88;;;25.04
73673;BMP280;61972;19.480;-99.240;2023-02-05T02:33:59;77984.28;;;25.00
73673;BMP280;61972;19.480;-99.240;2023-02-05T02:36:33;77988.41;;;24.99
73673;BMP280;61972;19.480;-99.240;2023-02-05T02:39:17;77995.69;;;24.98
73673;BMP280;61972;19.480;-99.240;2023-02-05T02:42:30;77998.09;;;24.96
73673;BMP280;61972;19.480;-99.240;2023-02-05T02:44:59;78000.16;;;24.95
73673;BMP280;61972;19.480;-99.240;2023-02-05T02:47:39;78000.53;;;24.93
73673;BMP280;61972;19.480;-99.240;2023-02-05T02:50:29;78017.72;;;24.92
73673;BMP280;61972;19.480;-99.240;2023-02-05T02:53:11;78021.81;;;24.91
73673;BMP280;61972;19.480;-99.240;2023-02-05T02:55:41;78019.97;;;24.94
73673;BMP280;61972;19.480;-99.240;2023-02-05T02:58:14;78028.56;;;24.97
73673;BMP280;61972;19.480;-99.240;2023-02-05T03:00:43;78026.69;;;25.00
73673;BMP280;61972;19.480;-99.240;2023-02-05T03:03:12;78026.88;;;25.03
73673;BMP280;61972;19.480;-99.240;2023-02-05T03:05:42;78031.16;;;25.04
73673;BMP280;61972;19.480;-99.240;2023-02-05T03:08:21;78027.03;;;25.05
73673;BMP280;61972;19.480;-99.240;2023-02-05T03:10:59;78034.13;;;25.09
73673;BMP280;61972;19.480;-99.240;2023-02-05T03:13:26;78034.50;;;25.15
73673;BMP280;61972;19.480;-99.240;2023-02-05T03:15:53;78031.69;;;25.19
73673;BMP280;61972;19.480;-99.240;2023-02-05T03:18:19;78040.09;;;25.20
73673;BMP280;61972;19.480;-99.240;2023-02-05T03:20:54;78039.16;;;25.21
73673;BMP280;61972;19.480;-99.240;2023-02-05T03:23:22;78037.88;;;25.25
73673;BMP280;61972;19.480;-99.240;2023-02-05T03:25:48;78034.28;;;25.26
73673;BMP280;61972;19.480;-99.240;2023-02-05T03:28:14;78040.66;;;25.27
73673;BMP280;61972;19.480;-99.240;2023-02-05T03:31:30;78046.06;;;25.30
73673;BMP280;61972;19.480;-99.240;2023-02-05T03:33:35;78049.78;;;25.31
73673;BMP280;61972;19.480;-99.240;2023-02-05T03:36:15;78046.81;;;25.33
73673;BMP280;61972;19.480;-99.240;2023-02-05T03:38:55;78046.44;;;25.35
73673;BMP280;61972;19.480;-99.240;2023-02-05T03:50:06;78064.56;;;25.33
73673;BMP280;61972;19.480;-99.240;2023-02-05T03:52:39;78064.56;;;25.33
73673;BMP280;61972;19.480;-99.240;2023-02-05T03:55:08;78068.09;;;25.31
73673;BMP280;61972;19.480;-99.240;2023-02-05T03:57:41;78071.28;;;25.32
73673;BMP280;61972;19.480;-99.240;2023-02-05T04:00:08;78077.09;;;25.32
73673;BMP280;61972;19.480;-99.240;2023-02-05T04:02:35;78077.09;;;25.32
73673;BMP280;61972;19.480;-99.240;2023-02-05T04:05:01;78078.22;;;25.33
73673;BMP280;61972;19.480;-99.240;2023-02-05T04:07:27;78073.50;;;25.34
73673;BMP280;61972;19.480;-99.240;2023-02-05T04:09:53;78085.66;;;25.35
73673;BMP280;61972;19.480;-99.240;2023-02-05T04:12:19;78088.66;;;25.33
73673;BMP280;61972;19.480;-99.240;2023-02-05T04:14:45;78085.66;;;25.35
73673;BMP280;61972;19.480;-99.240;2023-02-05T04:17:12;78089.78;;;25.34
73673;BMP280;61972;19.480;-99.240;2023-02-05T04:19:38;78090.91;;;25.35
73673;BMP280;61972;19.480;-99.240;2023-02-05T04:22:06;78090.34;;;25.35
73673;BMP280;61972;19.480;-99.240;2023-02-05T04:24:32;78092.94;;;25.35
73673;BMP280;61972;19.480;-99.240;2023-02-05T04:26:58;78097.63;;;25.34
73673;BMP280;61972;19.480;-99.240;2023-02-05T04:29:24;78098.00;;;25.32
73673;BMP280;61972;19.480;-99.240;2023-02-05T04:31:50;78091.66;;;25.31
73673;BMP280;61972;19.480;-99.240;2023-02-05T04:34:16;78093.34;;;25.33
73673;BMP280;61972;19.480;-99.240;2023-02-05T04:36:42;78098.00;;;25.32
73673;BMP280;61972;19.480;-99.240;2023-02-05T04:39:08;78103.22;;;25.32
73673;BMP280;61972;19.480;-99.240;2023-02-05T04:41:34;78096.88;;;25.31
73673;BMP280;61972;19.480;-99.240;2023-02-05T04:44:00;78099.88;;;25.29
73673;BMP280;61972;19.480;-99.240;2023-02-05T04:46:27;78102.84;;;25.27
73673;BMP280;61972;19.480;-99.240;2023-02-05T04:48:53;78108.06;;;25.27
73673;BMP280;61972;19.480;-99.240;2023-02-05T04:51:19;78103.63;;;25.23
73673;BMP280;61972;19.480;-99.240;2023-02-05T04:53:45;78104.38;;;25.19
73673;BMP280;61972;19.480;-99.240;2023-02-05T04:56:13;78107.34;;;25.17
73673;BMP280;61972;19.480;-99.240;2023-02-05T04:58:40;78107.34;;;25.17
73673;BMP280;61972;19.480;-99.240;2023-02-05T05:01:15;78106.22;;;25.16
73673;BMP280;61972;19.480;-99.240;2023-02-05T05:03:42;78099.88;;;25.15
73673;BMP280;61972;19.480;-99.240;2023-02-05T05:06:09;78098.38;;;25.16
73673;BMP280;61972;19.480;-99.240;2023-02-05T05:08:35;78104.72;;;25.17
73673;BMP280;61972;19.480;-99.240;2023-02-05T05:11:06;78101.75;;;25.19
73673;BMP280;61972;19.480;-99.240;2023-02-05T05:13:33;78103.41;;;25.20
73673;BMP280;61972;19.480;-99.240;2023-02-05T05:16:00;78100.25;;;25.20
73673;BMP280;61972;19.480;-99.240;2023-02-05T05:18:27;78099.69;;;25.19
73673;BMP280;61972;19.480;-99.240;2023-02-05T05:20:53;78107.16;;;25.21
73673;BMP280;61972;19.480;-99.240;2023-02-05T05:23:19;78101.38;;;25.21
73673;BMP280;61972;19.480;-99.240;2023-02-05T05:25:47;78100.25;;;25.20
73673;BMP280;61972;19.480;-99.240;2023-02-05T05:28:15;78103.25;;;25.18
73673;BMP280;61972;19.480;-99.240;2023-02-05T05:30:42;78101.00;;;25.16
73673;BMP280;61972;19.480;-99.240;2023-02-05T05:33:10;78102.88;;;25.13
73673;BMP280;61972;19.480;-99.240;2023-02-05T05:35:37;78114.63;;;25.09
73673;BMP280;61972;19.480;-99.240;2023-02-05T05:38:03;78106.59;;;25.06
73673;BMP280;61972;19.480;-99.240;2023-02-05T05:40:30;78106.59;;;25.06
73673;BMP280;61972;19.480;-99.240;2023-02-05T05:43:17;78112.41;;;25.07
73673;BMP280;61972;19.480;-99.240;2023-02-05T05:46:03;78116.50;;;25.06
73673;BMP280;61972;19.480;-99.240;2023-02-05T05:48:29;78112.22;;;25.04
73673;BMP280;61972;19.480;-99.240;2023-02-05T05:50:55;78112.56;;;25.02
73673;BMP280;61972;19.480;-99.240;2023-02-05T05:53:21;78111.47;;;25.01
73673;BMP280;61972;19.480;-99.240;2023-02-05T05:55:47;78113.50;;;25.01
73673;BMP280;61972;19.480;-99.240;2023-02-05T05:58:14;78120.81;;;25.00
73673;BMP280;61972;19.480;-99.240;2023-02-05T06:00:41;78116.50;;;24.99
73673;BMP280;61972;19.480;-99.240;2023-02-05T06:03:09;78115.38;;;24.98
73673;BMP280;61972;19.480;-99.240;2023-02-05T06:05:35;78116.31;;;24.96
73673;BMP280;61972;19.480;-99.240;2023-02-05T06:08:02;78120.41;;;24.95
73673;BMP280;61972;19.480;-99.240;2023-02-05T06:10:28;78122.09;;;24.97
73673;BMP280;61972;19.480;-99.240;2023-02-05T06:12:54;78118.75;;;24.94
73673;BMP280;61972;19.480;-99.240;2023-02-05T06:15:22;78116.88;;;24.89
73673;BMP280;61972;19.480;-99.240;2023-02-05T06:17:48;78122.44;;;24.87
73673;BMP280;61972;19.480;-99.240;2023-02-05T06:20:14;78118.53;;;24.84
73673;BMP280;61972;19.480;-99.240;2023-02-05T06:22:40;78117.44;;;24.83
73673;BMP280;61972;19.480;-99.240;2023-02-05T06:25:07;78121.53;;;24.82
73673;BMP280;61972;19.480;-99.240;2023-02-05T06:27:33;78118.72;;;24.79
73673;BMP280;61972;19.480;-99.240;2023-02-05T06:29:59;78115.72;;;24.81
73673;BMP280;61972;19.480;-99.240;2023-02-05T06:32:25;78113.31;;;24.84
73673;BMP280;61972;19.480;-99.240;2023-02-05T06:34:51;78119.66;;;24.85
73673;BMP280;61972;19.480;-99.240;2023-02-05T06:37:17;78110.13;;;24.83
73673;BMP280;61972;19.480;-99.240;2023-02-05T06:39:44;78104.72;;;24.81
73673;BMP280;61972;19.480;-99.240;2023-02-05T06:42:10;78114.06;;;24.80
73673;BMP280;61972;19.480;-99.240;2023-02-05T06:44:36;78114.59;;;24.80
73673;BMP280;61972;19.480;-99.240;2023-02-05T06:47:02;78111.06;;;24.82
73673;BMP280;61972;19.480;-99.240;2023-02-05T06:49:28;78116.84;;;24.82
73673;BMP280;61972;19.480;-99.240;2023-02-05T06:51:54;78110.50;;;24.81
73673;BMP280;61972;19.480;-99.240;2023-02-05T06:54:20;78113.09;;;24.81
73673;BMP280;61972;19.480;-99.240;2023-02-05T06:56:47;78112.19;;;24.83
73673;BMP280;61972;19.480;-99.240;2023-02-05T06:59:13;78111.63;;;24.82
73673;BMP280;61972;19.480;-99.240;2023-02-05T07:01:39;78113.69;;;24.82
73673;BMP280;61972;19.480;-99.240;2023-02-05T07:04:05;78115.16;;;24.81
73673;BMP280;61972;19.480;-99.240;2023-02-05T07:06:31;78111.44;;;24.80
73673;BMP280;61972;19.480;-99.240;2023-02-05T07:08:57;78115.53;;;24.79
73673;BMP280;61972;19.480;-99.240;2023-02-05T07:11:24;78109.75;;;24.78
73673;BMP280;61972;19.480;-99.240;2023-02-05T07:13:50;78114.78;;;24.76
73673;BMP280;61972;19.480;-99.240;2023-02-05T07:16:17;78114.22;;;24.75
73673;BMP280;61972;19.480;-99.240;2023-02-05T07:18:43;78115.16;;;24.73
73673;BMP280;61972;19.480;-99.240;2023-02-05T07:21:13;78115.53;;;24.71
73673;BMP280;61972;19.480;-99.240;2023-02-05T07:23:41;78114.44;;;25.14
73673;BMP280;61972;19.480;-99.240;2023-02-05T07:26:12;78120.78;;;24.93
73673;BMP280;61972;19.480;-99.240;2023-02-05T07:28:38;78117.03;;;24.78
73673;BMP280;61972;19.480;-99.240;2023-02-05T07:31:06;78108.06;;;24.69
73673;BMP280;61972;19.480;-99.240;2023-02-05T07:33:33;78109.75;;;24.64
73673;BMP280;61972;19.480;-99.240;2023-02-05T07:36:05;78109.53;;;24.61
73673;BMP280;61972;19.480;-99.240;2023-02-05T07:38:32;78108.81;;;24.58
73673;BMP280;61972;19.480;-99.240;2023-02-05T07:40:58;78101.31;;;24.56
73673;BMP280;61972;19.480;-99.240;2023-02-05T07:43:27;78101.31;;;24.56
73673;BMP280;61972;19.480;-99.240;2023-02-05T07:46:01;78097.59;;;24.55
73673;BMP280;61972;19.480;-99.240;2023-02-05T07:48:27;78097.03;;;24.54
73673;BMP280;61972;19.480;-99.240;2023-02-05T07:50:53;78088.44;;;24.51
73673;BMP280;61972;19.480;-99.240;2023-02-05T07:53:19;78091.44;;;24.49
73673;BMP280;61972;19.480;-99.240;2023-02-05T07:55:46;78085.63;;;24.49
73673;BMP280;61972;19.480;-99.240;2023-02-05T07:58:12;78089.94;;;24.50
73673;BMP280;61972;19.480;-99.240;2023-02-05T08:00:39;78085.28;;;24.51
73673;BMP280;61972;19.480;-99.240;2023-02-05T08:03:05;78082.28;;;24.53
73673;BMP280;61972;19.480;-99.240;2023-02-05T08:05:32;78081.72;;;24.52
73673;BMP280;61972;19.480;-99.240;2023-02-05T08:07:58;78075.56;;;24.54
73673;BMP280;61972;19.480;-99.240;2023-02-05T08:10:24;78072.97;;;24.54
73673;BMP280;61972;19.480;-99.240;2023-02-05T08:12:50;78074.44;;;24.53
73673;BMP280;61972;19.480;-99.240;2023-02-05T08:15:16;78080.03;;;24.51
73673;BMP280;61972;19.480;-99.240;2023-02-05T08:17:42;78071.09;;;24.50
73673;BMP280;61972;19.480;-99.240;2023-02-05T08:20:10;78075.16;;;24.49
73673;BMP280;61972;19.480;-99.240;2023-02-05T08:22:38;78082.47;;;24.48
73673;BMP280;61972;19.480;-99.240;2023-02-05T08:25:06;78069.41;;;24.48
73673;BMP280;61972;19.480;-99.240;2023-02-05T08:27:33;78063.59;;;24.48
73673;BMP280;61972;19.480;-99.240;2023-02-05T08:30:02;78063.06;;;24.47
73673;BMP280;61972;19.480;-99.240;2023-02-05T08:32:28;78065.47;;;24.45
73673;BMP280;61972;19.480;-99.240;2023-02-05T08:34:54;78060.63;;;24.43
73673;BMP280;61972;19.480;-99.240;2023-02-05T08:37:20;78060.97;;;24.41
73673;BMP280;61972;19.480;-99.240;2023-02-05T08:39:47;78053.53;;;24.39
73673;BMP280;61972;19.480;-99.240;2023-02-05T08:42:14;78052.41;;;24.37
73673;BMP280;61972;19.480;-99.240;2023-02-05T08:44:41;78056.88;;;24.34
73673;BMP280;61972;19.480;-99.240;2023-02-05T08:47:07;78053.16;;;24.33
73673;BMP280;61972;19.480;-99.240;2023-02-05T08:49:33;78059.50;;;24.34
73673;BMP280;61972;19.480;-99.240;2023-02-05T08:51:59;78048.69;;;24.36
73673;BMP280;61972;19.480;-99.240;2023-02-05T08:54:25;78046.63;;;24.37
73673;BMP280;61972;19.480;-99.240;2023-02-05T08:56:51;78057.63;;;24.37
73673;BMP280;61972;19.480;-99.240;2023-02-05T08:59:18;78051.28;;;24.36
73673;BMP280;61972;19.480;-99.240;2023-02-05T09:01:45;78044.94;;;24.35
73673;BMP280;61972;19.480;-99.240;2023-02-05T09:04:15;78045.31;;;24.33
73673;BMP280;61972;19.480;-99.240;2023-02-05T09:06:42;78044.56;;;24.30
73673;BMP280;61972;19.480;-99.240;2023-02-05T09:09:09;78045.28;;;24.26
73673;BMP280;61972;19.480;-99.240;2023-02-05T09:11:35;78049.03;;;24.20
73673;BMP280;61972;19.480;-99.240;2023-02-05T09:14:01;78047.31;;;24.11
73673;BMP280;61972;19.480;-99.240;2023-02-05T09:16:28;78045.63;;;24.03
73673;BMP280;61972;19.480;-99.240;2023-02-05T09:18:55;78046.69;;;23.96
73673;BMP280;61972;19.480;-99.240;2023-02-05T09:21:21;78050.25;;;23.88
73673;BMP280;61972;19.480;-99.240;2023-02-05T09:23:52;78038.09;;;23.79
73673;BMP280;61972;19.480;-99.240;2023-02-05T09:26:18;78040.09;;;23.71
73673;BMP280;61972;19.480;-99.240;2023-02-05T09:28:45;78039.50;;;23.63
73673;BMP280;61972;19.480;-99.240;2023-02-05T09:31:14;78038.38;;;23.55
73673;BMP280;61972;19.480;-99.240;2023-02-05T09:33:41;78033.69;;;23.49
73673;BMP280;61972;19.480;-99.240;2023-02-05T09:36:10;78037.19;;;23.40
73673;BMP280;61972;19.480;-99.240;2023-02-05T09:38:37;78038.63;;;23.32
73673;BMP280;61972;19.480;-99.240;2023-02-05T09:41:23;78033.91;;;23.25
73673;BMP280;61972;19.480;-99.240;2023-02-05T09:49:20;78037.34;;;23.02
73673;BMP280;61972;19.480;-99.240;2023-02-05T09:51:50;78041.03;;;22.96
73673;BMP280;61972;19.480;-99.240;2023-02-05T09:54:22;78038.59;;;22.91
73673;BMP280;61972;19.480;-99.240;2023-02-05T09:56:53;78036.50;;;22.84
73673;BMP280;61972;19.480;-99.240;2023-02-05T09:59:26;78032.34;;;22.78
73673;BMP280;61972;19.480;-99.240;2023-02-05T10:02:20;78037.50;;;22.71
73673;BMP280;61972;19.480;-99.240;2023-02-05T10:04:50;78039.72;;;22.66
73673;BMP280;61972;19.480;-99.240;2023-02-05T10:10:21;78042.41;;;22.54
73673;BMP280;61972;19.480;-99.240;2023-02-05T10:16:14;78037.31;;;22.42
73673;BMP280;61972;19.480;-99.240;2023-02-05T10:19:06;78046.16;;;22.36
73673;BMP280;61972;19.480;-99.240;2023-02-05T10:22:27;78039.44;;;22.30
73673;BMP280;61972;19.480;-99.240;2023-02-05T10:27:23;78036.78;;;22.23
73673;BMP280;61972;19.480;-99.240;2023-02-05T10:30:15;78034.31;;;22.18
73673;BMP280;61972;19.480;-99.240;2023-02-05T10:32:57;78035.03;;;22.14
73673;BMP280;61972;19.480;-99.240;2023-02-05T10:37:52;78045.91;;;22.07
73673;BMP280;61972;19.480;-99.240;2023-02-05T10:40:32;78041.97;;;22.04
73673;BMP280;61972;19.480;-99.240;2023-02-05T10:43:15;78036.91;;;21.99
73673;BMP280;61972;19.480;-99.240;2023-02-05T10:45:43;78037.28;;;21.97
73673;BMP280;61972;19.480;-99.240;2023-02-05T10:48:38;78044.31;;;21.94
73673;BMP280;61972;19.480;-99.240;2023-02-05T10:51:19;78041.28;;;21.89
73673;BMP280;61972;19.480;-99.240;2023-02-05T10:53:47;78034.38;;;21.87
73673;BMP280;61972;19.480;-99.240;2023-02-05T10:56:18;78031.56;;;21.84
73673;BMP280;61972;19.480;-99.240;2023-02-05T11:01:24;78027.97;;;21.79
73673;BMP280;61972;19.480;-99.240;2023-02-05T11:04:00;78033.88;;;21.75
73673;BMP280;61972;19.480;-99.240;2023-02-05T11:06:31;78027.91;;;21.72
73673;BMP280;61972;19.480;-99.240;2023-02-05T11:09:01;78028.84;;;21.70
73673;BMP280;61972;19.480;-99.240;2023-02-05T11:11:29;78030.66;;;21.67
73673;BMP280;61972;19.480;-99.240;2023-02-05T11:14:05;78034.75;;;21.66
73673;BMP280;61972;19.480;-99.240;2023-02-05T11:16:40;78037.69;;;21.64
73673;BMP280;61972;19.480;-99.240;2023-02-05T11:19:24;78038.38;;;21.60
73673;BMP280;61972;19.480;-99.240;2023-02-05T11:21:56;78036.16;;;21.58
73673;BMP280;61972;19.480;-99.240;2023-02-05T11:27:31;78039.44;;;21.54
73673;BMP280;61972;19.480;-99.240;2023-02-05T11:30:16;78047.56;;;21.52
73673;BMP280;61972;19.480;-99.240;2023-02-05T11:32:43;78039.56;;;21.49
73673;BMP280;61972;19.480;-99.240;2023-02-05T11:35:23;78047.13;;;21.46
73673;BMP280;61972;19.480;-99.240;2023-02-05T11:38:08;78044.91;;;21.44
73673;BMP280;61972;19.480;-99.240;2023-02-05T11:40:35;78048.38;;;21.43
73673;BMP280;61972;19.480;-99.240;2023-02-05T11:43:07;78056.53;;;21.41
73673;BMP280;61972;19.480;-99.240;2023-02-05T11:45:47;78051.13;;;21.38
73673;BMP280;61972;19.480;-99.240;2023-02-05T11:48:39;78050.34;;;21.35
73673;BMP280;61972;19.480;-99.240;2023-02-05T11:51:47;78053.28;;;21.33
73673;BMP280;61972;19.480;-99.240;2023-02-05T11:54:30;78055.66;;;21.30
73673;BMP280;61972;19.480;-99.240;2023-02-05T12:00:17;78067.31;;;21.27
73673;BMP280;61972;19.480;-99.240;2023-02-05T12:02:44;78058.75;;;21.24
73673;BMP280;61972;19.480;-99.240;2023-02-05T12:05:25;78066.88;;;21.22
73673;BMP280;61972;19.480;-99.240;2023-02-05T12:08:14;78065.75;;;21.21
73673;BMP280;61972;19.480;-99.240;2023-02-05T12:13:41;78067.59;;;21.18
73673;BMP280;61972;19.480;-99.240;2023-02-05T12:19:25;78067.69;;;21.13
73673;BMP280;61972;19.480;-99.240;2023-02-05T12:22:15;78071.22;;;21.11
73673;BMP280;61972;19.480;-99.240;2023-02-05T12:44:58;78092.47;;;20.93
73673;BMP280;61972;19.480;-99.240;2023-02-05T12:58:36;78092.72;;;20.84
73673;BMP280;61972;19.480;-99.240;2023-02-05T13:01:17;78090.47;;;20.82
73673;BMP280;61972;19.480;-99.240;2023-02-05T13:03:48;78087.63;;;20.79
73673;BMP280;61972;19.480;-99.240;2023-02-05T13:06:40;78095.22;;;20.76
73673;BMP280;61972;19.480;-99.240;2023-02-05T13:09:19;78094.09;;;20.75
73673;BMP280;61972;19.480;-99.240;2023-02-05T13:11:57;78097.56;;;20.74
73673;BMP280;61972;19.480;-99.240;2023-02-05T13:14:33;78095.34;;;20.72
73673;BMP280;61972;19.480;-99.240;2023-02-05T13:17:05;78093.63;;;20.70
73673;BMP280;61972;19.480;-99.240;2023-02-05T13:19:47;78089.91;;;20.69
73673;BMP280;61972;19.480;-99.240;2023-02-05T13:22:39;78092.84;;;20.67
73673;BMP280;61972;19.480;-99.240;2023-02-05T13:25:34;78101.31;;;20.63
73673;BMP280;61972;19.480;-99.240;2023-02-05T13:28:51;78096.13;;;20.63
73673;BMP280;61972;19.480;-99.240;2023-02-05T13:31:28;78097.03;;;20.62
73673;BMP280;61972;19.480;-99.240;2023-02-05T13:33:59;78096.81;;;20.59
73673;BMP280;61972;19.480;-99.240;2023-02-05T13:51:58;78112.97;;;20.48
73673;BMP280;61972;19.480;-99.240;2023-02-05T13:59:54;78104.72;;;20.43
73673;BMP280;61972;19.480;-99.240;2023-02-05T14:02:40;78103.00;;;20.41
73673;BMP280;61972;19.480;-99.240;2023-02-05T14:05:07;78109.09;;;20.39
73673;BMP280;61972;19.480;-99.240;2023-02-05T14:10:32;78108.31;;;20.36
73673;BMP280;61972;19.480;-99.240;2023-02-05T14:15:51;78116.44;;;20.34
73673;BMP280;61972;19.480;-99.240;2023-02-05T14:23:53;78107.06;;;20.28
73673;BMP280;61972;19.480;-99.240;2023-02-05T14:29:40;78120.41;;;20.26
73673;BMP280;61972;19.480;-99.240;2023-02-05T14:38:14;78126.03;;;20.19
73673;BMP280;61972;19.480;-99.240;2023-02-05T14:40:41;78120.25;;;20.19
73673;BMP280;61972;19.480;-99.240;2023-02-05T14:43:27;78118.00;;;20.17
73673;BMP280;61972;19.480;-99.240;2023-02-05T14:45:55;78105.03;;;20.17
73673;BMP280;61972;19.480;-99.240;2023-02-05T14:48:27;78111.69;;;20.16
73673;BMP280;61972;19.480;-99.240;2023-02-05T14:51:07;78114.59;;;20.14
73673;BMP280;61972;19.480;-99.240;2023-02-05T14:53:35;78113.50;;;20.13
73673;BMP280;61972;19.480;-99.240;2023-02-05T14:56:02;78116.09;;;20.13
73673;BMP280;61972;19.480;-99.240;2023-02-05T14:58:33;78122.16;;;20.11
73673;BMP280;61972;19.480;-99.240;2023-02-05T15:04:02;78118.78;;;20.08
73673;BMP280;61972;19.480;-99.240;2023-02-05T15:06:36;78120.81;;;20.08
73673;BMP280;61972;19.480;-99.240;2023-02-05T15:09:13;78128.59;;;20.08
73673;BMP280;61972;19.480;-99.240;2023-02-05T15:14:39;78130.38;;;20.04
73673;BMP280;61972;19.480;-99.240;2023-02-05T15:19:41;78128.34;;;20.05
73673;BMP280;61972;19.480;-99.240;2023-02-05T15:22:24;78126.66;;;20.03
73673;BMP280;61972;19.480;-99.240;2023-02-05T15:24:51;78131.28;;;20.03
73673;BMP280;61972;19.480;-99.240;2023-02-05T15:27:22;78139.94;;;20.01
73673;BMP280;61972;19.480;-99.240;2023-02-05T15:29:52;78133.88;;;20.03
73673;BMP280;61972;19.480;-99.240;2023-02-05T15:32:26;78132.75;;;20.02
73673;BMP280;61972;19.480;-99.240;2023-02-05T15:35:13;78134.44;;;20.03
73673;BMP280;61972;19.480;-99.240;2023-02-05T15:41:15;78139.06;;;20.03
73673;BMP280;61972;19.480;-99.240;2023-02-05T15:43:59;78136.81;;;20.01
73673;BMP280;61972;19.480;-99.240;2023-02-05T15:46:26;78141.41;;;20.00
73673;BMP280;61972;19.480;-99.240;2023-02-05T15:48:54;78141.97;;;20.01
73673;BMP280;61972;19.480;-99.240;2023-02-05T15:51:25;78142.53;;;20.01
73673;BMP280;61972;19.480;-99.240;2023-02-05T15:53:54;78141.41;;;20.00
73673;BMP280;61972;19.480;-99.240;2023-02-05T15:56:27;78145.13;;;20.01
73673;BMP280;61972;19.480;-99.240;2023-02-05T15:59:04;78146.59;;;20.00
73673;BMP280;61972;19.480;-99.240;2023-02-05T16:04:27;78148.09;;;19.99
73673;BMP280;61972;19.480;-99.240;2023-02-05T16:06:54;78146.03;;;20.00
73673;BMP280;61972;19.480;-99.240;2023-02-05T16:09:22;78141.41;;;20.00
73673;BMP280;61972;19.480;-99.240;2023-02-05T16:11:50;78147.19;;;20.01
73673;BMP280;61972;19.480;-99.240;2023-02-05T16:14:18;78147.19;;;20.01
73673;BMP280;61972;19.480;-99.240;2023-02-05T16:17:19;78150.91;;;20.02
73673;BMP280;61972;19.480;-99.240;2023-02-05T16:20:22;78150.31;;;20.01
73673;BMP280;61972;19.480;-99.240;2023-02-05T16:22:56;78146.84;;;20.03